createdAt,value
2022-09-01T00:00:01.662Z,2.53
2022-09-01T00:02:32.308Z,2.33
2022-09-01T00:05:00.557Z,2.72
2022-09-01T00:07:30.710Z,2.00
2022-09-01T00:09:59.144Z,1.98
2022-09-01T00:12:28.302Z,2.50
2022-09-01T00:14:56.181Z,2.45
2022-09-01T00:17:24.076Z,2.58
2022-09-01T00:19:53.568Z,2.65
2022-09-01T00:22:21.640Z,2.17
2022-09-01T00:24:49.762Z,2.83
2022-09-01T00:32:14.019Z,2.33
2022-09-01T00:34:41.991Z,2.30
2022-09-01T00:39:39.078Z,2.47
2022-09-01T00:42:07.096Z,2.50
2022-09-01T00:44:36.505Z,2.70
2022-09-01T00:47:07.796Z,2.83
2022-09-01T00:52:11.934Z,2.67
2022-09-01T00:54:44.685Z,2.42
2022-09-01T00:57:13.960Z,2.40
2022-09-01T00:59:48.183Z,2.63
2022-09-01T01:02:16.814Z,2.75
2022-09-01T01:04:46.354Z,2.80
2022-09-01T01:07:15.728Z,2.58
2022-09-01T01:12:17.555Z,2.60
2022-09-01T01:14:50.424Z,2.83
2022-09-01T01:20:07.430Z,3.05
2022-09-01T01:23:03.566Z,3.20
2022-09-01T01:25:35.548Z,2.53
2022-09-01T01:28:15.842Z,2.55
2022-09-01T01:30:52.298Z,2.40
2022-09-01T01:33:21.825Z,2.75
2022-09-01T01:35:51.898Z,3.05
2022-09-01T01:38:23.060Z,2.72
2022-09-01T01:40:53.893Z,2.60
2022-09-01T01:43:23.226Z,2.67
2022-09-01T01:45:54.243Z,2.42
2022-09-01T01:48:24.602Z,2.67
2022-09-01T01:53:23.021Z,2.80
2022-09-01T01:55:52.468Z,2.63
2022-09-01T01:58:22.756Z,2.58
2022-09-01T02:00:52.055Z,2.90
2022-09-01T02:03:22.120Z,2.72
2022-09-01T02:05:52.301Z,2.90
2022-09-01T02:08:22.012Z,2.90
2022-09-01T02:10:52.855Z,2.60
2022-09-01T02:13:25.247Z,2.80
2022-09-01T02:15:56.513Z,2.97
2022-09-01T02:18:28.017Z,2.70
2022-09-01T02:23:26.807Z,3.33
2022-09-01T02:26:15.507Z,3.35
2022-09-01T02:28:54.750Z,3.30
2022-09-01T02:31:24.352Z,3.40
2022-09-01T02:36:22.943Z,2.92
2022-09-01T02:38:53.134Z,3.20
2022-09-01T02:41:25.333Z,3.22
2022-09-01T02:46:24.479Z,3.50
2022-09-01T02:48:53.353Z,3.17
2022-09-01T02:51:25.577Z,3.45
2022-09-01T02:53:55.145Z,3.08
2022-09-01T02:56:27.616Z,3.35
2022-09-01T02:58:56.671Z,3.30
2022-09-01T03:01:26.475Z,3.45
2022-09-01T03:03:56.562Z,4.38
2022-09-01T03:06:25.914Z,4.30
2022-09-01T03:08:56.501Z,4.43
2022-09-01T03:11:25.726Z,3.85
2022-09-01T03:13:54.080Z,3.13
2022-09-01T03:16:23.624Z,2.88
2022-09-01T03:18:52.801Z,3.10
2022-09-01T03:23:51.027Z,3.42
2022-09-01T03:26:22.082Z,3.17
2022-09-01T03:38:49.756Z,3.28
2022-09-01T03:43:48.385Z,3.05
2022-09-01T03:46:21.796Z,3.17
2022-09-01T03:48:51.439Z,3.40
2022-09-01T03:51:22.904Z,3.33
2022-09-01T03:53:54.490Z,3.13
2022-09-01T03:56:24.734Z,3.13
2022-09-01T04:06:24.100Z,3.00
2022-09-01T04:08:56.899Z,3.47
2022-09-01T04:13:54.130Z,3.53
2022-09-01T04:16:43.204Z,3.80
2022-09-01T04:29:24.245Z,3.85
2022-09-01T04:36:54.671Z,3.70
2022-09-01T04:41:51.274Z,3.65
2022-09-01T04:44:20.197Z,3.75
2022-09-01T04:49:22.519Z,3.75
2022-09-01T04:51:54.008Z,3.67
2022-09-01T04:54:24.011Z,3.53
2022-09-01T04:56:55.077Z,4.03
2022-09-01T04:59:27.238Z,3.67
2022-09-01T05:04:27.566Z,3.50
2022-09-01T05:09:30.018Z,4.10
2022-09-01T05:12:01.689Z,3.85
2022-09-01T05:14:29.692Z,3.80
2022-09-01T05:16:58.921Z,4.00
2022-09-01T05:21:59.995Z,3.65
2022-09-01T05:31:58.808Z,4.13
2022-09-01T05:34:29.728Z,4.38
2022-09-01T05:39:29.330Z,4.65
2022-09-01T05:46:53.657Z,3.85
2022-09-01T05:51:54.162Z,4.30
2022-09-01T05:54:27.532Z,3.40
2022-09-01T05:57:02.151Z,3.72
2022-09-01T05:59:36.162Z,3.40
2022-09-01T06:02:04.159Z,3.85
2022-09-01T06:07:06.659Z,3.33
2022-09-01T06:09:39.222Z,3.15
2022-09-01T06:14:35.375Z,3.70
2022-09-01T06:24:35.353Z,4.15
2022-09-01T06:27:03.237Z,3.72
2022-09-01T06:29:31.418Z,4.20
2022-09-01T06:39:31.779Z,3.15
2022-09-01T06:44:32.101Z,3.58
2022-09-01T06:47:01.055Z,3.40
2022-09-01T06:52:03.987Z,3.72
2022-09-01T06:54:35.495Z,3.30
2022-09-01T06:59:54.158Z,3.75
2022-09-01T07:05:59.814Z,3.63
2022-09-01T07:11:19.542Z,3.05
2022-09-01T07:13:25.457Z,3.75
2022-09-01T07:18:44.669Z,2.95
2022-09-01T07:24:20.421Z,3.60
2022-09-01T07:26:50.851Z,3.63
2022-09-01T07:29:22.812Z,3.13
2022-09-01T07:41:44.194Z,3.05
2022-09-01T07:42:30.798Z,3.28
2022-09-01T07:42:59.280Z,3.35
2022-09-01T07:43:22.507Z,3.45
2022-09-01T07:46:00.579Z,3.17
2022-09-01T07:49:01.826Z,3.05
2022-09-01T07:51:37.254Z,3.00
2022-09-01T07:54:06.546Z,2.70
2022-09-01T07:56:39.924Z,3.28
2022-09-01T07:59:15.186Z,2.67
2022-09-01T08:01:43.914Z,2.97
2022-09-01T08:04:11.909Z,2.88
2022-09-01T08:06:40.829Z,2.75
2022-09-01T08:09:11.947Z,3.10
2022-09-01T08:17:16.790Z,2.70
2022-09-01T08:19:46.991Z,2.70
2022-09-01T08:22:14.885Z,2.60
2022-09-01T08:24:42.826Z,2.95
2022-09-01T08:27:10.657Z,2.65
2022-09-01T08:29:39.917Z,2.80
2022-09-01T08:32:07.862Z,2.28
2022-09-01T08:34:37.443Z,2.40
2022-09-01T08:37:05.514Z,2.83
2022-09-01T08:39:34.171Z,2.70
2022-09-01T08:42:12.392Z,2.80
2022-09-01T08:44:52.057Z,2.33
2022-09-01T08:47:28.709Z,2.50
2022-09-01T08:49:59.927Z,2.50
2022-09-01T08:52:32.978Z,2.20
2022-09-01T08:55:07.237Z,2.50
2022-09-01T08:57:37.713Z,2.47
2022-09-01T09:00:11.158Z,2.60
2022-09-01T09:02:49.517Z,2.30
2022-09-01T09:05:35.853Z,2.50
2022-09-01T09:08:32.963Z,2.17
2022-09-01T09:11:05.276Z,2.30
2022-09-01T09:13:45.405Z,2.08
2022-09-01T09:16:20.750Z,2.30
2022-09-01T09:18:56.195Z,2.42
2022-09-01T09:21:30.056Z,2.58
2022-09-01T09:24:04.847Z,2.33
2022-09-01T09:26:48.558Z,2.40
2022-09-01T09:29:16.430Z,2.70
2022-09-01T09:31:50.514Z,2.10
2022-09-01T09:34:32.615Z,2.30
2022-09-01T09:37:17.466Z,2.80
2022-09-01T09:39:45.406Z,2.25
2022-09-01T09:42:16.104Z,2.50
2022-09-01T09:44:46.710Z,2.20
2022-09-01T09:47:43.567Z,2.53
2022-09-01T09:50:24.932Z,2.60
2022-09-01T09:52:55.773Z,2.33
2022-09-01T09:55:29.088Z,2.40
2022-09-01T09:58:00.662Z,2.40
2022-09-01T10:00:30.991Z,2.67
2022-09-01T10:03:04.584Z,2.35
2022-09-01T10:05:43.252Z,2.28
2022-09-01T10:08:14.881Z,2.20
2022-09-01T10:10:45.768Z,2.10
2022-09-01T10:13:27.543Z,2.58
2022-09-01T10:15:58.154Z,2.20
2022-09-01T10:18:33.836Z,2.00
2022-09-01T10:23:39.096Z,2.70
2022-09-01T10:26:15.224Z,1.92
2022-09-01T10:28:52.552Z,2.15
2022-09-01T10:31:22.771Z,2.20
2022-09-01T10:33:52.495Z,2.20
2022-09-01T10:36:24.421Z,2.28
2022-09-01T10:38:54.520Z,2.25
2022-09-01T10:41:56.530Z,2.17
2022-09-01T10:44:34.086Z,1.73
2022-09-01T10:47:06.112Z,1.80
2022-09-01T10:50:07.661Z,1.80
2022-09-01T10:53:01.428Z,2.13
2022-09-01T10:55:42.759Z,1.85
2022-09-01T11:05:17.802Z,2.45
2022-09-01T11:08:03.134Z,1.80
2022-09-01T11:10:54.246Z,2.53
2022-09-01T11:13:34.795Z,1.98
2022-09-01T11:19:44.470Z,1.90
2022-09-01T11:22:22.821Z,2.13
2022-09-01T11:25:11.658Z,2.80
2022-09-01T11:27:59.346Z,2.35
2022-09-01T11:30:36.975Z,2.35
2022-09-01T11:35:49.172Z,2.00
2022-09-01T11:38:20.772Z,1.75
2022-09-01T11:40:57.344Z,2.40
2022-09-01T11:43:27.098Z,2.10
2022-09-01T11:46:08.015Z,1.88
2022-09-01T11:48:35.924Z,2.25
2022-09-01T11:51:05.337Z,1.85
2022-09-01T11:53:34.670Z,2.10
2022-09-01T11:56:16.088Z,2.30
2022-09-01T11:58:44.371Z,2.25
2022-09-01T12:01:15.353Z,1.73
2022-09-01T12:03:43.729Z,2.20
2022-09-01T12:08:55.251Z,2.03
2022-09-01T12:11:27.545Z,1.98
2022-09-01T12:16:25.491Z,2.13
2022-09-01T12:18:55.066Z,1.77
2022-09-01T12:21:25.981Z,2.40
2022-09-01T12:24:10.591Z,2.08
2022-09-01T12:26:40.278Z,1.80
2022-09-01T12:29:08.769Z,2.15
2022-09-01T12:31:37.062Z,2.30
2022-09-01T12:36:35.929Z,1.92
2022-09-01T12:39:23.838Z,1.80
2022-09-01T12:42:04.350Z,2.00
2022-09-01T12:44:34.506Z,1.67
2022-09-01T12:47:04.872Z,1.80
2022-09-01T12:49:47.813Z,1.80
2022-09-01T12:52:26.062Z,1.88
2022-09-01T12:55:47.421Z,2.05
2022-09-01T12:58:04.372Z,1.90
2022-09-01T13:00:34.848Z,2.13
2022-09-01T13:03:14.554Z,4.22
2022-09-01T13:05:44.035Z,1.95
2022-09-01T13:08:14.421Z,2.00
2022-09-01T13:10:47.261Z,2.10
2022-09-01T13:13:16.904Z,2.03
2022-09-01T13:15:50.416Z,2.00
2022-09-01T13:18:19.589Z,1.90
2022-09-01T13:20:47.529Z,2.65
2022-09-01T13:23:15.712Z,2.05
2022-09-01T13:25:46.725Z,1.90
2022-09-01T13:28:16.196Z,2.00
2022-09-01T13:30:46.909Z,1.95
2022-09-01T13:33:19.588Z,1.98
2022-09-01T13:35:48.951Z,2.28
2022-09-01T13:38:17.025Z,2.28
2022-09-01T13:40:48.028Z,2.00
2022-09-01T13:43:17.113Z,2.00
2022-09-01T13:45:45.321Z,1.92
2022-09-01T13:48:15.555Z,2.10
2022-09-01T13:53:32.749Z,2.00
2022-09-01T13:56:02.015Z,2.20
2022-09-01T13:58:29.898Z,2.15
2022-09-01T14:01:00.176Z,2.13
2022-09-01T14:03:32.235Z,2.00
2022-09-01T14:06:00.228Z,1.73
2022-09-01T14:08:28.193Z,2.00
2022-09-01T14:10:56.316Z,2.17
2022-09-01T14:13:26.622Z,2.42
2022-09-01T14:15:56.727Z,2.13
2022-09-01T14:18:24.878Z,2.10
2022-09-01T14:20:54.749Z,2.10
2022-09-01T14:23:22.646Z,1.98
2022-09-01T14:25:52.316Z,2.60
2022-09-01T14:28:21.922Z,2.03
2022-09-01T14:33:24.260Z,2.00
2022-09-01T14:35:52.195Z,2.40
2022-09-01T14:38:20.274Z,2.20
2022-09-01T14:40:49.337Z,2.08
2022-09-01T14:43:17.551Z,1.90
2022-09-01T14:45:48.430Z,2.17
2022-09-01T14:48:19.678Z,2.40
2022-09-01T14:50:50.933Z,2.20
2022-09-01T14:53:19.537Z,2.00
2022-09-01T14:55:48.390Z,2.17
2022-09-01T14:58:17.656Z,1.88
2022-09-01T15:00:45.580Z,2.00
2022-09-01T15:03:13.434Z,2.45
2022-09-01T15:05:43.329Z,2.00
2022-09-01T15:08:16.957Z,2.00
2022-09-01T15:10:46.115Z,2.08
2022-09-01T15:13:14.108Z,2.17
2022-09-01T15:15:42.036Z,2.30
2022-09-01T15:18:10.753Z,2.40
2022-09-01T15:20:50.973Z,2.42
2022-09-01T15:23:21.328Z,2.35
2022-09-01T15:25:51.676Z,2.05
2022-09-01T15:28:19.583Z,2.17
2022-09-01T15:30:48.090Z,2.00
2022-09-01T15:33:16.503Z,2.33
2022-09-01T15:35:46.770Z,2.25
2022-09-01T15:38:17.432Z,2.10
2022-09-01T15:40:55.497Z,2.30
2022-09-01T15:43:27.025Z,2.10
2022-09-01T15:45:54.958Z,2.22
2022-09-01T15:48:22.760Z,2.10
2022-09-01T15:50:52.348Z,2.40
2022-09-01T15:53:20.338Z,2.20
2022-09-01T15:55:49.828Z,2.03
2022-09-01T15:58:19.464Z,2.50
2022-09-01T16:00:47.773Z,1.92
2022-09-01T16:08:13.834Z,2.70
2022-09-01T16:10:43.163Z,2.10
2022-09-01T16:13:13.034Z,2.30
2022-09-01T16:15:47.687Z,2.22
2022-09-01T16:18:30.847Z,2.40
2022-09-01T16:21:07.220Z,2.40
2022-09-01T16:23:42.277Z,2.30
2022-09-01T16:26:11.842Z,2.05
2022-09-01T16:28:40.384Z,1.92
2022-09-01T16:31:13.405Z,2.10
2022-09-01T16:33:47.380Z,2.10
2022-09-01T16:36:29.945Z,2.47
2022-09-01T16:39:08.174Z,1.92
2022-09-01T16:41:45.332Z,2.22
2022-09-01T16:44:24.850Z,2.42
2022-09-01T16:47:01.857Z,2.13
2022-09-01T16:49:38.683Z,2.10
2022-09-01T16:52:13.813Z,2.00
2022-09-01T16:54:57.528Z,1.95
2022-09-01T16:57:33.672Z,2.10
2022-09-01T17:00:04.801Z,2.03
2022-09-01T17:02:43.168Z,2.00
2022-09-01T17:05:21.962Z,1.90
2022-09-01T17:07:53.564Z,1.80
2022-09-01T17:10:34.614Z,2.10
2022-09-01T17:13:16.555Z,2.10
2022-09-01T17:15:49.952Z,2.22
2022-09-01T17:18:22.439Z,1.80
2022-09-01T17:20:58.327Z,2.10
2022-09-01T17:23:29.247Z,1.95
2022-09-01T17:26:03.148Z,2.00
2022-09-01T17:28:35.618Z,2.20
2022-09-01T17:31:14.369Z,1.98
2022-09-01T17:34:01.908Z,2.17
2022-09-01T17:36:46.784Z,2.05
2022-09-01T17:39:32.684Z,2.10
2022-09-01T17:42:10.600Z,2.40
2022-09-01T17:44:46.143Z,2.25
2022-09-01T17:47:21.543Z,1.98
2022-09-01T17:49:56.106Z,2.15
2022-09-01T17:52:40.030Z,1.85
2022-09-01T17:55:19.683Z,1.98
2022-09-01T17:57:58.993Z,2.03
2022-09-01T18:00:29.154Z,2.30
2022-09-01T18:03:25.860Z,2.17
2022-09-01T18:06:01.073Z,1.95
2022-09-01T18:08:37.424Z,2.30
2022-09-01T18:11:11.471Z,2.08
2022-09-01T18:13:53.250Z,2.35
2022-09-01T18:16:25.774Z,2.00
2022-09-01T18:18:55.081Z,2.35
2022-09-01T18:21:26.259Z,2.13
2022-09-01T18:29:03.783Z,2.15
2022-09-01T18:31:49.953Z,2.38
2022-09-01T18:37:03.840Z,2.50
2022-09-01T18:39:44.989Z,2.20
2022-09-01T18:42:25.472Z,2.05
2022-09-01T18:45:05.469Z,2.35
2022-09-01T18:47:36.477Z,2.50
2022-09-01T18:50:14.874Z,2.00
2022-09-01T18:52:54.785Z,2.38
2022-09-01T18:55:31.172Z,1.90
2022-09-01T18:58:04.179Z,2.10
2022-09-01T19:00:42.351Z,2.40
2022-09-01T19:03:22.748Z,2.30
2022-09-01T19:06:08.520Z,2.22
2022-09-01T19:08:48.843Z,2.30
2022-09-01T19:11:27.276Z,2.17
2022-09-01T19:14:04.270Z,2.50
2022-09-01T19:16:45.723Z,2.30
2022-09-01T19:19:24.901Z,2.15
2022-09-01T19:21:55.916Z,2.25
2022-09-01T19:24:28.301Z,2.22
2022-09-01T19:27:00.426Z,2.42
2022-09-01T19:29:32.919Z,2.50
2022-09-01T19:32:06.519Z,2.50
2022-09-01T19:34:39.114Z,2.10
2022-09-01T19:37:08.047Z,2.50
2022-09-01T19:39:39.845Z,2.38
2022-09-01T19:42:13.469Z,2.63
2022-09-01T19:44:47.086Z,2.20
2022-09-01T19:47:21.271Z,2.50
2022-09-01T19:49:55.656Z,2.20
2022-09-01T19:52:32.292Z,2.40
2022-09-01T19:55:05.351Z,2.58
2022-09-01T19:57:37.335Z,2.47
2022-09-01T20:00:11.951Z,2.47
2022-09-01T20:02:47.435Z,2.35
2022-09-01T20:05:26.896Z,2.45
2022-09-01T20:07:59.563Z,2.42
2022-09-01T20:10:56.665Z,2.25
2022-09-01T20:13:37.738Z,2.30
2022-09-01T20:18:50.238Z,2.20
2022-09-01T20:21:22.018Z,2.38
2022-09-01T20:23:55.178Z,2.47
2022-09-01T20:26:27.173Z,2.33
2022-09-01T20:29:01.468Z,2.50
2022-09-01T20:31:33.059Z,2.60
2022-09-01T20:34:08.650Z,2.40
2022-09-01T20:36:42.450Z,2.33
2022-09-01T20:39:33.339Z,2.50
2022-09-01T20:42:05.900Z,1.73
2022-09-01T20:44:43.322Z,2.13
2022-09-01T20:47:11.281Z,2.20
2022-09-01T20:49:41.194Z,2.33
2022-09-01T20:52:15.076Z,2.15
2022-09-01T20:54:51.230Z,1.92
2022-09-01T20:57:29.333Z,2.38
2022-09-01T20:59:59.951Z,2.50
2022-09-01T21:02:37.579Z,2.15
2022-09-01T21:05:23.871Z,2.30
2022-09-01T21:08:01.201Z,2.20
2022-09-01T21:10:38.623Z,2.45
2022-09-01T21:13:21.743Z,2.45
2022-09-01T21:15:59.339Z,2.25
2022-09-01T21:18:49.188Z,2.20
2022-09-01T21:21:30.958Z,2.13
2022-09-01T21:23:58.838Z,2.10
2022-09-01T21:26:26.760Z,2.13
2022-09-01T21:28:59.253Z,1.90
2022-09-01T21:33:54.975Z,1.90
2022-09-01T21:38:52.038Z,3.08
2022-09-01T21:41:19.864Z,1.85
2022-09-01T21:43:47.859Z,1.92
2022-09-01T21:48:44.699Z,2.05
2022-09-01T21:51:12.571Z,2.60
2022-09-01T21:58:38.774Z,1.92
2022-09-01T22:01:08.022Z,2.10
2022-09-01T22:03:38.593Z,2.20
2022-09-01T22:08:34.613Z,2.00
2022-09-01T22:11:10.570Z,2.40
2022-09-01T22:13:38.420Z,2.38
2022-09-01T22:16:06.538Z,1.90
2022-09-01T22:18:34.414Z,2.20
2022-09-01T22:21:04.161Z,2.40
2022-09-01T22:23:32.122Z,1.92
2022-09-01T22:26:00.077Z,2.20
2022-09-01T22:30:57.369Z,1.98
2022-09-01T22:33:25.342Z,2.00
2022-09-01T22:35:55.228Z,2.03
2022-09-01T22:38:24.178Z,1.70
2022-09-01T22:40:55.015Z,1.73
2022-09-01T22:43:24.125Z,2.17
2022-09-01T22:45:53.563Z,2.63
2022-09-01T22:48:24.372Z,2.47
2022-09-01T22:50:53.474Z,2.35
2022-09-01T22:53:22.815Z,2.30
2022-09-01T22:55:52.583Z,2.15
2022-09-01T22:58:21.332Z,2.15
2022-09-01T23:00:51.413Z,2.00
2022-09-01T23:03:21.498Z,2.08
2022-09-01T23:08:19.153Z,2.05
2022-09-01T23:10:46.975Z,1.92
2022-09-01T23:13:15.246Z,2.38
2022-09-01T23:18:11.108Z,1.70
2022-09-01T23:20:40.325Z,2.05
2022-09-01T23:23:08.140Z,1.83
2022-09-01T23:25:36.019Z,2.05
2022-09-01T23:28:04.266Z,1.90
2022-09-01T23:30:32.159Z,2.20
2022-09-01T23:35:28.034Z,2.17
2022-09-01T23:40:26.013Z,2.00
2022-09-01T23:42:53.894Z,1.98
2022-09-01T23:45:21.739Z,2.00
2022-09-01T23:50:17.650Z,2.20
2022-09-01T23:52:45.961Z,1.77
2022-09-01T23:55:15.289Z,1.98
2022-09-01T23:57:43.137Z,2.10
